createdAt,value
2023-12-04T00:00:47.652Z,98574.50
2023-12-04T00:03:14.002Z,98575.13
2023-12-04T00:05:43.603Z,98569.22
2023-12-04T00:08:09.985Z,98569.41
2023-12-04T00:10:36.398Z,98566.09
2023-12-04T00:13:02.859Z,98555.91
2023-12-04T00:15:29.300Z,98554.25
2023-12-04T00:17:56.184Z,98549.91
2023-12-04T00:20:22.622Z,98550.72
2023-12-04T00:22:49.125Z,98550.72
2023-12-04T00:25:15.488Z,98555.28
2023-12-04T00:27:41.955Z,98544.19
2023-12-04T00:30:08.920Z,98546.78
2023-12-04T00:32:35.288Z,98532.06
2023-12-04T00:35:01.933Z,98526.34
2023-12-04T00:37:28.324Z,98516.50
2023-12-04T00:39:54.725Z,98502.47
2023-12-04T00:42:21.189Z,98500.81
2023-12-04T00:44:47.608Z,98500.63
2023-12-04T00:47:14.057Z,98496.97
2023-12-04T00:49:40.595Z,98493.56
2023-12-04T00:52:07.050Z,98496.34
2023-12-04T00:54:33.560Z,98493.75
2023-12-04T00:57:00.112Z,98491.91
2023-12-04T00:59:26.498Z,98487.44
2023-12-04T01:01:52.877Z,98487.63
2023-12-04T01:04:19.353Z,98490.34
2023-12-04T01:06:45.768Z,98489.31
2023-12-04T01:09:12.155Z,98492.00
2023-12-04T01:11:38.581Z,98487.75
2023-12-04T01:14:05.032Z,98488.69
2023-12-04T01:16:31.509Z,98486.91
2023-12-04T01:18:58.176Z,98489.31
2023-12-04T01:21:24.605Z,98487.44
2023-12-04T01:23:51.847Z,98472.19
2023-12-04T01:26:18.227Z,98469.47
2023-12-04T01:28:44.702Z,98461.19
2023-12-04T01:31:11.060Z,98450.91
2023-12-04T01:33:37.565Z,98450.19
2023-12-04T01:36:05.388Z,98441.47
2023-12-04T01:38:31.765Z,98439.72
2023-12-04T01:40:58.103Z,98443.13
2023-12-04T01:43:24.546Z,98435.66
2023-12-04T01:45:53.216Z,98437.13
2023-12-04T01:48:20.339Z,98438.56
2023-12-04T01:50:46.860Z,98430.56
2023-12-04T01:53:13.295Z,98430.56
2023-12-04T01:55:40.053Z,98427.25
2023-12-04T01:58:06.924Z,98433.28
2023-12-04T02:00:33.746Z,98430.78
2023-12-04T02:03:00.753Z,98425.47
2023-12-04T02:05:30.326Z,98424.66
2023-12-04T02:07:57.227Z,98416.03
2023-12-04T02:10:23.769Z,98409.09
2023-12-04T02:12:53.324Z,98408.38
2023-12-04T02:15:19.837Z,98407.53
2023-12-04T02:17:46.802Z,98409.63
2023-12-04T02:20:16.238Z,98417.09
2023-12-04T02:22:42.609Z,98400.47
2023-12-04T02:25:21.356Z,98399.53
2023-12-04T02:27:59.801Z,98403.69
2023-12-04T02:30:29.708Z,98409.41
2023-12-04T02:32:58.136Z,98401.41
2023-12-04T02:35:26.203Z,98407.53
2023-12-04T02:37:54.336Z,98407.53
2023-12-04T02:40:21.136Z,98401.53
2023-12-04T02:42:47.624Z,98396.22
2023-12-04T02:45:14.117Z,98396.00
2023-12-04T02:47:40.512Z,98394.13
2023-12-04T02:50:07.616Z,98392.25
2023-12-04T02:52:34.064Z,98386.84
2023-12-04T02:55:00.503Z,98387.56
2023-12-04T02:57:26.932Z,98383.22
2023-12-04T02:59:54.224Z,98389.34
2023-12-04T03:02:20.585Z,98390.28
2023-12-04T03:04:47.407Z,98385.91
2023-12-04T03:07:13.850Z,98380.00
2023-12-04T03:09:48.462Z,98377.97
2023-12-04T03:12:16.463Z,98367.16
2023-12-04T03:14:42.916Z,98379.63
2023-12-04T03:17:09.338Z,98385.84
2023-12-04T03:19:36.011Z,98384.19
2023-12-04T03:22:03.062Z,98380.88
2023-12-04T03:24:29.478Z,98383.78
2023-12-04T03:26:57.245Z,98383.06
2023-12-04T03:29:23.645Z,98372.69
2023-12-04T03:31:50.004Z,98375.78
2023-12-04T03:34:16.690Z,98371.31
2023-12-04T03:36:43.092Z,98370.72
2023-12-04T03:39:09.622Z,98370.50
2023-12-04T03:41:35.995Z,98369.34
2023-12-04T03:44:03.252Z,98367.25
2023-12-04T03:46:29.654Z,98368.31
2023-12-04T03:48:56.715Z,98355.75
2023-12-04T03:51:23.127Z,98354.00
2023-12-04T03:53:49.525Z,98349.31
2023-12-04T03:56:15.883Z,98350.97
2023-12-04T03:58:42.242Z,98350.88
2023-12-04T04:01:08.656Z,98344.97
2023-12-04T04:03:35.190Z,98346.41
2023-12-04T04:06:01.702Z,98340.28
2023-12-04T04:08:28.122Z,98338.31
2023-12-04T04:10:54.687Z,98327.00
2023-12-04T04:13:21.126Z,98315.06
2023-12-04T04:15:47.633Z,98317.03
2023-12-04T04:18:14.129Z,98319.72
2023-12-04T04:20:40.539Z,98317.13
2023-12-04T04:23:06.878Z,98311.13
2023-12-04T04:25:33.229Z,98318.78
2023-12-04T04:27:59.667Z,98314.16
2023-12-04T04:30:26.017Z,98310.94
2023-12-04T04:32:52.491Z,98305.75
2023-12-04T04:35:18.843Z,98310.00
2023-12-04T04:37:46.454Z,98310.94
2023-12-04T04:40:13.764Z,98305.16
2023-12-04T04:42:40.210Z,98305.75
2023-12-04T04:45:07.060Z,98304.50
2023-12-04T04:47:36.446Z,98301.78
2023-12-04T04:50:03.931Z,98306.66
2023-12-04T04:52:32.037Z,98291.50
2023-12-04T04:54:59.494Z,98280.78
2023-12-04T04:57:25.922Z,98281.72
2023-12-04T04:59:52.301Z,98275.81
2023-12-04T05:02:18.756Z,98263.69
2023-12-04T05:04:45.284Z,98262.75
2023-12-04T05:07:13.211Z,98258.97
2023-12-04T05:09:39.598Z,98259.47
2023-12-04T05:12:06.439Z,98249.50
2023-12-04T05:14:32.843Z,98252.00
2023-12-04T05:16:59.235Z,98250.72
2023-12-04T05:19:25.773Z,98242.25
2023-12-04T05:21:52.286Z,98243.66
2023-12-04T05:24:18.698Z,98234.09
2023-12-04T05:26:45.081Z,98232.56
2023-12-04T05:29:11.420Z,98233.28
2023-12-04T05:31:37.787Z,98231.06
2023-12-04T05:34:04.479Z,98227.28
2023-12-04T05:36:30.947Z,98227.06
2023-12-04T05:38:59.275Z,98226.13
2023-12-04T05:41:27.216Z,98219.16
2023-12-04T05:43:53.648Z,98211.00
2023-12-04T05:46:19.990Z,98202.28
2023-12-04T05:48:46.466Z,98202.28
2023-12-04T05:51:12.855Z,98204.63
2023-12-04T05:53:39.405Z,98209.72
2023-12-04T05:56:06.549Z,98208.06
2023-12-04T05:58:32.915Z,98209.25
2023-12-04T06:00:59.312Z,98203.44
2023-12-04T06:03:26.804Z,98201.56
2023-12-04T06:05:56.760Z,98206.09
2023-12-04T06:08:24.225Z,98199.00
2023-12-04T06:10:50.601Z,98194.78
2023-12-04T06:13:17.000Z,98191.25
2023-12-04T06:15:43.507Z,98189.69
2023-12-04T06:18:10.024Z,98194.78
2023-12-04T06:20:36.412Z,98186.66
2023-12-04T06:23:02.996Z,98180.50
2023-12-04T06:25:29.863Z,98176.38
2023-12-04T06:27:56.666Z,98178.97
2023-12-04T06:30:23.392Z,98175.44
2023-12-04T06:32:49.976Z,98173.06
2023-12-04T06:35:20.257Z,98168.56
2023-12-04T06:37:49.596Z,98171.19
2023-12-04T06:40:16.548Z,98166.91
2023-12-04T06:42:43.228Z,98173.06
2023-12-04T06:45:10.171Z,98169.72
2023-12-04T06:47:38.105Z,98157.47
2023-12-04T06:50:04.996Z,98152.16
2023-12-04T06:52:31.344Z,98153.56
2023-12-04T06:54:57.802Z,98142.81
2023-12-04T06:57:24.194Z,98152.13
2023-12-04T06:59:50.809Z,98160.41
2023-12-04T07:02:17.203Z,98151.22
2023-12-04T07:04:43.626Z,98158.28
2023-12-04T07:07:10.121Z,98158.38
2023-12-04T07:09:36.975Z,98153.41
2023-12-04T07:12:03.616Z,98142.53
2023-12-04T07:14:30.060Z,98150.91
2023-12-04T07:16:57.755Z,98152.69
2023-12-04T07:19:24.341Z,98148.06
2023-12-04T07:21:50.749Z,98155.75
2023-12-04T07:24:17.139Z,98150.28
2023-12-04T07:26:43.499Z,98136.38
2023-12-04T07:29:09.870Z,98137.88
2023-12-04T07:31:36.544Z,98125.84
2023-12-04T07:34:02.999Z,98131.25
2023-12-04T07:36:30.267Z,98133.63
2023-12-04T07:38:56.620Z,98131.47
2023-12-04T07:41:23.009Z,98123.19
2023-12-04T07:43:49.547Z,98127.75
2023-12-04T07:46:15.973Z,98132.38
2023-12-04T07:48:43.211Z,98114.34
2023-12-04T07:51:10.369Z,98121.50
2023-12-04T07:53:36.780Z,98125.28
2023-12-04T07:56:03.637Z,98120.84
2023-12-04T07:58:30.599Z,98122.94
2023-12-04T08:00:56.961Z,98119.44
2023-12-04T08:03:23.354Z,98116.47
2023-12-04T08:05:49.731Z,98111.56
2023-12-04T08:08:16.635Z,98120.53
2023-12-04T08:10:43.095Z,98112.56
2023-12-04T08:13:09.558Z,98105.88
2023-12-04T08:15:35.954Z,98105.63
2023-12-04T08:18:02.404Z,98096.59
2023-12-04T08:20:36.449Z,98095.69
2023-12-04T08:23:06.505Z,98097.50
2023-12-04T08:25:33.104Z,98096.72
2023-12-04T08:27:59.964Z,98092.50
2023-12-04T08:30:26.463Z,98097.72
2023-12-04T08:32:53.096Z,98092.69
2023-12-04T08:35:19.709Z,98092.69
2023-12-04T08:37:46.171Z,98082.66
2023-12-04T08:40:12.892Z,98090.81
2023-12-04T08:42:39.357Z,98094.25
2023-12-04T08:45:06.457Z,98089.31
2023-12-04T08:47:33.069Z,98094.28
2023-12-04T08:50:01.221Z,98082.59
2023-12-04T08:52:27.588Z,98093.84
2023-12-04T08:54:53.978Z,98092.19
2023-12-04T08:57:20.437Z,98099.75
2023-12-04T08:59:46.772Z,98099.88
2023-12-04T09:02:15.006Z,98090.25
2023-12-04T09:04:41.894Z,98093.91
2023-12-04T09:09:37.847Z,98084.53
2023-12-04T09:12:05.056Z,98073.75
2023-12-04T09:14:31.421Z,98075.25
2023-12-04T09:16:58.540Z,98081.69
2023-12-04T09:19:25.495Z,98081.38
2023-12-04T09:21:59.745Z,98081.31
2023-12-04T09:24:35.071Z,98073.72
2023-12-04T09:27:01.545Z,98075.94
2023-12-04T09:29:28.357Z,98074.25
2023-12-04T09:31:54.826Z,98072.09
2023-12-04T09:34:21.495Z,98060.31
2023-12-04T09:36:49.206Z,98058.53
2023-12-04T09:39:16.526Z,98056.94
2023-12-04T09:41:44.735Z,98050.91
2023-12-04T09:44:11.192Z,98052.63
2023-12-04T09:46:38.515Z,98053.34
2023-12-04T09:49:05.901Z,98054.72
2023-12-04T09:51:32.669Z,98057.78
2023-12-04T09:54:03.805Z,98056.09
2023-12-04T09:56:30.613Z,98044.94
2023-12-04T09:59:01.191Z,98044.47
2023-12-04T10:01:30.346Z,98044.69
2023-12-04T10:04:00.599Z,98045.66
2023-12-04T10:06:28.424Z,98042.50
2023-12-04T10:08:58.898Z,98041.97
2023-12-04T10:11:26.058Z,98039.91
2023-12-04T10:13:58.363Z,98033.78
2023-12-04T10:16:33.306Z,98027.09
2023-12-04T10:19:19.290Z,98016.19
2023-12-04T10:21:47.124Z,98008.47
2023-12-04T10:24:13.993Z,97996.19
2023-12-04T10:26:51.281Z,97977.75
2023-12-04T10:29:18.036Z,97966.75
2023-12-04T10:31:44.616Z,97957.88
2023-12-04T10:34:11.253Z,97944.09
2023-12-04T10:36:39.121Z,97937.66
2023-12-04T10:39:05.664Z,97936.13
2023-12-04T10:41:32.736Z,97929.31
2023-12-04T10:44:04.444Z,97927.50
2023-12-04T10:46:39.925Z,97928.25
2023-12-04T10:49:07.150Z,97925.16
2023-12-04T10:51:34.503Z,97925.97
2023-12-04T10:54:00.973Z,97925.03
2023-12-04T10:56:37.140Z,97917.38
2023-12-04T10:59:07.014Z,97914.06
2023-12-04T11:01:33.969Z,97896.84
2023-12-04T11:04:05.820Z,97894.63
2023-12-04T11:06:33.734Z,97892.59
2023-12-04T11:09:00.382Z,97887.31
2023-12-04T11:11:31.048Z,97883.31
2023-12-04T11:14:02.597Z,97874.53
2023-12-04T11:16:35.923Z,97872.91
2023-12-04T11:19:15.141Z,97872.53
2023-12-04T11:21:42.829Z,97866.38
2023-12-04T11:24:09.483Z,97855.91
2023-12-04T11:26:36.892Z,97859.44
2023-12-04T11:29:04.491Z,97854.06
2023-12-04T11:31:31.241Z,97855.75
2023-12-04T11:34:03.973Z,97846.91
2023-12-04T11:36:30.907Z,97846.75
2023-12-04T11:38:57.331Z,97844.94
2023-12-04T11:41:27.077Z,97853.50
2023-12-04T11:43:57.597Z,97850.59
2023-12-04T11:46:26.334Z,97848.53
2023-12-04T11:49:16.763Z,97842.25
2023-12-04T11:51:43.288Z,97833.41
2023-12-04T11:54:11.175Z,97829.44
2023-12-04T11:56:37.568Z,97830.56
2023-12-04T11:59:07.022Z,97829.81
2023-12-04T12:01:38.076Z,97834.19
2023-12-04T12:04:08.378Z,97830.66
2023-12-04T12:06:35.228Z,97832.50
2023-12-04T12:09:01.896Z,97823.56
2023-12-04T12:11:28.760Z,97831.31
2023-12-04T12:13:55.262Z,97839.09
2023-12-04T12:16:22.706Z,97838.97
2023-12-04T12:18:49.776Z,97827.41
2023-12-04T12:21:16.320Z,97829.59
2023-12-04T12:23:42.833Z,97819.97
2023-12-04T12:26:09.336Z,97828.69
2023-12-04T12:28:36.392Z,97828.75
2023-12-04T12:31:04.179Z,97831.38
2023-12-04T12:33:30.682Z,97843.69
2023-12-04T12:36:03.250Z,97845.00
2023-12-04T12:38:31.307Z,97841.25
2023-12-04T12:40:57.665Z,97836.69
2023-12-04T12:43:24.818Z,97821.16
2023-12-04T12:45:51.934Z,97817.88
2023-12-04T12:48:18.994Z,97798.81
2023-12-04T12:50:48.255Z,97800.59
2023-12-04T12:53:15.213Z,97805.81
2023-12-04T12:55:42.360Z,97807.13
2023-12-04T12:58:10.607Z,97799.47
2023-12-04T13:00:37.426Z,97795.34
2023-12-04T13:03:04.766Z,97793.88
2023-12-04T13:05:31.450Z,97801.22
2023-12-04T13:07:58.035Z,97804.16
2023-12-04T13:10:25.223Z,97789.06
2023-12-04T13:12:52.401Z,97792.16
2023-12-04T13:15:20.180Z,97781.13
2023-12-04T13:17:47.085Z,97780.94
2023-12-04T13:20:13.507Z,97779.81
2023-12-04T13:22:40.749Z,97777.22
2023-12-04T13:25:07.726Z,97775.44
2023-12-04T13:27:35.070Z,97772.56
2023-12-04T13:30:01.466Z,97761.09
2023-12-04T13:32:27.933Z,97756.47
2023-12-04T13:34:54.681Z,97761.88
2023-12-04T13:37:21.029Z,97758.47
2023-12-04T13:39:47.386Z,97764.88
2023-12-04T13:42:15.212Z,97769.31
2023-12-04T13:44:41.564Z,97763.91
2023-12-04T13:47:08.116Z,97751.28
2023-12-04T13:49:34.556Z,97748.44
2023-12-04T13:52:00.940Z,97734.81
2023-12-04T13:54:27.270Z,97733.63
2023-12-04T13:56:53.909Z,97723.50
2023-12-04T13:59:22.069Z,97710.09
2023-12-04T14:01:50.211Z,97701.94
2023-12-04T14:04:16.969Z,97693.59
2023-12-04T14:06:43.948Z,97687.03
2023-12-04T14:09:10.480Z,97679.69
2023-12-04T14:11:40.333Z,97671.50
2023-12-04T14:14:06.721Z,97673.13
2023-12-04T14:16:33.159Z,97672.78
2023-12-04T14:19:00.535Z,97675.09
2023-12-04T14:21:27.016Z,97666.59
2023-12-04T14:23:53.350Z,97666.91
2023-12-04T14:26:19.744Z,97663.13
2023-12-04T14:28:46.182Z,97657.69
2023-12-04T14:31:12.663Z,97658.81
2023-12-04T14:33:42.085Z,97658.47
2023-12-04T14:36:10.771Z,97651.13
2023-12-04T14:38:37.205Z,97647.53
2023-12-04T14:41:03.773Z,97639.50
2023-12-04T14:43:30.176Z,97635.59
2023-12-04T14:45:56.518Z,97623.78
2023-12-04T14:48:22.926Z,97629.66
2023-12-04T14:50:49.905Z,97619.19
2023-12-04T14:53:16.266Z,97624.75
2023-12-04T14:55:43.852Z,97635.06
2023-12-04T14:58:10.226Z,97635.50
2023-12-04T15:00:36.660Z,97630.16
2023-12-04T15:03:03.194Z,97630.44
2023-12-04T15:05:29.809Z,97625.53
2023-12-04T15:07:56.201Z,97629.56
2023-12-04T15:10:23.037Z,97643.56
2023-12-04T15:12:49.445Z,97650.75
2023-12-04T15:15:15.987Z,97649.09
2023-12-04T15:17:42.542Z,97658.38
2023-12-04T15:20:09.175Z,97656.75
2023-12-04T15:22:35.501Z,97641.16
2023-12-04T15:25:01.996Z,97634.94
2023-12-04T15:27:28.384Z,97630.34
2023-12-04T15:29:55.234Z,97646.50
2023-12-04T15:32:21.605Z,97634.38
2023-12-04T15:34:47.996Z,97629.25
2023-12-04T15:37:14.525Z,97618.78
2023-12-04T15:39:41.028Z,97620.22
2023-12-04T15:42:07.540Z,97630.19
2023-12-04T15:44:34.397Z,97618.22
2023-12-04T15:47:01.966Z,97596.81
2023-12-04T15:49:28.519Z,97601.31
2023-12-04T15:51:55.146Z,97609.44
2023-12-04T15:54:21.503Z,97597.22
2023-12-04T15:56:47.888Z,97598.19
2023-12-04T15:59:14.232Z,97599.94
2023-12-04T16:01:41.513Z,97599.47
2023-12-04T16:04:10.750Z,97604.19
2023-12-04T16:06:37.247Z,97600.59
2023-12-04T16:09:04.045Z,97605.47
2023-12-04T16:11:30.473Z,97611.03
2023-12-04T16:13:56.905Z,97612.16
2023-12-04T16:16:23.273Z,97613.13
2023-12-04T16:18:49.742Z,97606.47
2023-12-04T16:21:16.237Z,97605.03
2023-12-04T16:23:42.617Z,97605.25
2023-12-04T16:26:08.993Z,97608.91
2023-12-04T16:28:35.374Z,97598.31
2023-12-04T16:31:01.733Z,97604.66
2023-12-04T16:33:28.176Z,97595.91
2023-12-04T16:35:55.341Z,97597.81
2023-12-04T16:38:21.724Z,97587.75
2023-12-04T16:40:48.144Z,97597.69
2023-12-04T16:43:14.543Z,97591.66
2023-12-04T16:45:41.109Z,97577.91
2023-12-04T16:48:07.644Z,97573.16
2023-12-04T16:50:34.435Z,97563.00
2023-12-04T16:53:00.809Z,97552.47
2023-12-04T16:55:27.147Z,97544.97
2023-12-04T16:57:53.612Z,97547.66
2023-12-04T17:00:20.677Z,97556.47
2023-12-04T17:02:47.328Z,97545.25
2023-12-04T17:05:13.972Z,97543.69
2023-12-04T17:07:40.498Z,97546.16
2023-12-04T17:10:07.823Z,97551.25
2023-12-04T17:12:34.809Z,97556.63
2023-12-04T17:15:01.139Z,97562.66
2023-12-04T17:17:27.533Z,97550.25
2023-12-04T17:19:53.898Z,97545.19
2023-12-04T17:22:20.610Z,97535.78
2023-12-04T17:24:47.010Z,97535.94
2023-12-04T17:27:13.488Z,97536.91
2023-12-04T17:29:40.031Z,97535.13
2023-12-04T17:32:06.521Z,97541.84
2023-12-04T17:34:33.473Z,97535.63
2023-12-04T17:37:00.127Z,97525.13
2023-12-04T17:39:26.569Z,97522.88
2023-12-04T17:41:53.104Z,97521.41
2023-12-04T17:44:19.445Z,97509.31
2023-12-04T17:46:46.022Z,97498.88
2023-12-04T17:49:12.446Z,97492.19
2023-12-04T17:51:39.051Z,97494.50
2023-12-04T17:54:05.540Z,97506.13
2023-12-04T17:56:32.315Z,97504.63
2023-12-04T17:58:58.743Z,97503.50
2023-12-04T18:01:25.137Z,97511.34
2023-12-04T18:03:51.911Z,97521.63
2023-12-04T18:06:31.866Z,97532.63
2023-12-04T18:08:58.956Z,97540.50
2023-12-04T18:11:25.700Z,97551.59
2023-12-04T18:13:52.442Z,97544.97
2023-12-04T18:16:18.786Z,97540.94
2023-12-04T18:18:46.306Z,97551.25
2023-12-04T18:21:13.320Z,97535.84
2023-12-04T18:23:39.751Z,97522.13
2023-12-04T18:26:06.560Z,97524.00
2023-12-04T18:28:33.203Z,97511.94
2023-12-04T18:30:59.819Z,97510.44
2023-12-04T18:33:27.163Z,97510.00
2023-12-04T18:35:55.276Z,97519.91
2023-12-04T18:38:30.151Z,97514.69
2023-12-04T18:40:56.789Z,97523.88
2023-12-04T18:43:23.417Z,97515.69
2023-12-04T18:45:50.167Z,97506.88
2023-12-04T18:48:21.600Z,97502.47
2023-12-04T18:50:49.009Z,97498.72
2023-12-04T18:53:15.565Z,97520.13
2023-12-04T18:55:42.380Z,97530.13
2023-12-04T18:58:08.759Z,97514.59
2023-12-04T19:00:35.360Z,97514.25
2023-12-04T19:03:02.384Z,97505.28
2023-12-04T19:05:28.970Z,97495.34
2023-12-04T19:07:55.405Z,97488.50
2023-12-04T19:10:21.776Z,97477.69
2023-12-04T19:12:48.917Z,97477.19
2023-12-04T19:15:16.097Z,97472.31
2023-12-04T19:17:42.393Z,97467.09
2023-12-04T19:20:09.364Z,97474.72
2023-12-04T19:22:35.722Z,97471.44
2023-12-04T19:25:02.069Z,97465.63
2023-12-04T19:27:28.538Z,97483.28
2023-12-04T19:29:55.202Z,97468.19
2023-12-04T19:32:22.940Z,97464.50
2023-12-04T19:34:49.587Z,97464.00
2023-12-04T19:37:15.974Z,97454.88
2023-12-04T19:39:42.612Z,97448.84
2023-12-04T19:42:09.073Z,97453.91
2023-12-04T19:44:36.129Z,97451.47
2023-12-04T19:47:02.517Z,97444.13
2023-12-04T19:49:29.124Z,97455.03
2023-12-04T19:51:55.619Z,97461.38
2023-12-04T19:54:22.023Z,97456.31
2023-12-04T19:56:48.830Z,97457.00
2023-12-04T19:59:15.259Z,97448.13
2023-12-04T20:01:41.654Z,97432.94
2023-12-04T20:04:08.223Z,97427.94
2023-12-04T20:06:34.821Z,97426.97
2023-12-04T20:09:01.397Z,97415.41
2023-12-04T20:11:27.773Z,97419.50
2023-12-04T20:13:55.466Z,97415.88
2023-12-04T20:16:23.011Z,97408.03
2023-12-04T20:18:49.421Z,97409.91
2023-12-04T20:21:16.007Z,97402.78
2023-12-04T20:23:42.560Z,97408.03
2023-12-04T20:26:09.394Z,97405.75
2023-12-04T20:28:35.778Z,97408.56
2023-12-04T20:31:02.288Z,97411.75
2023-12-04T20:33:28.813Z,97411.50
2023-12-04T20:35:55.616Z,97406.28
2023-12-04T20:38:22.169Z,97413.09
2023-12-04T20:40:49.188Z,97409.03
2023-12-04T20:43:16.139Z,97402.59
2023-12-04T20:45:42.629Z,97405.97
2023-12-04T20:48:09.103Z,97401.44
2023-12-04T20:50:36.173Z,97401.72
2023-12-04T20:53:03.054Z,97395.84
2023-12-04T20:55:31.177Z,97387.69
2023-12-04T20:57:57.566Z,97389.06
2023-12-04T21:00:24.174Z,97387.28
2023-12-04T21:02:51.461Z,97381.66
2023-12-04T21:05:19.184Z,97383.69
2023-12-04T21:07:45.759Z,97388.13
2023-12-04T21:10:12.348Z,97379.31
2023-12-04T21:12:38.870Z,97374.56
2023-12-04T21:15:06.105Z,97374.41
2023-12-04T21:17:34.462Z,97370.66
2023-12-04T21:20:00.854Z,97365.50
2023-12-04T21:22:27.346Z,97364.22
2023-12-04T21:24:54.688Z,97361.19
2023-12-04T21:27:21.320Z,97360.69
2023-12-04T21:29:47.798Z,97364.53
2023-12-04T21:32:14.246Z,97362.94
2023-12-04T21:34:40.664Z,97355.56
2023-12-04T21:37:07.087Z,97355.63
2023-12-04T21:39:34.646Z,97349.28
2023-12-04T21:42:01.196Z,97360.53
2023-12-04T21:44:27.583Z,97351.41
2023-12-04T21:46:53.945Z,97344.41
2023-12-04T21:49:20.453Z,97344.72
2023-12-04T21:51:46.891Z,97342.88
2023-12-04T21:54:13.645Z,97343.88
2023-12-04T21:56:40.100Z,97346.66
2023-12-04T21:59:15.767Z,97340.47
2023-12-04T22:01:46.467Z,97333.69
2023-12-04T22:04:13.294Z,97330.59
2023-12-04T22:06:39.815Z,97329.47
2023-12-04T22:09:06.294Z,97321.28
2023-12-04T22:11:32.673Z,97317.19
2023-12-04T22:13:59.094Z,97324.72
2023-12-04T22:16:26.236Z,97333.56
2023-12-04T22:18:52.730Z,97334.91
2023-12-04T22:21:19.146Z,97334.59
2023-12-04T22:23:45.782Z,97340.16
2023-12-04T22:26:13.198Z,97330.72
2023-12-04T22:28:39.599Z,97326.47
2023-12-04T22:31:06.885Z,97326.16
2023-12-04T22:33:33.300Z,97319.59
2023-12-04T22:35:59.810Z,97320.75
2023-12-04T22:38:26.183Z,97322.72
2023-12-04T22:40:52.880Z,97321.63
2023-12-04T22:43:19.317Z,97319.28
2023-12-04T22:45:45.850Z,97318.78
2023-12-04T22:48:12.420Z,97324.16
2023-12-04T22:50:38.849Z,97323.66
2023-12-04T22:53:09.341Z,97319.41
2023-12-04T22:55:36.353Z,97314.84
2023-12-04T22:58:03.399Z,97306.56
2023-12-04T23:00:29.776Z,97304.59
2023-12-04T23:02:56.410Z,97299.38
2023-12-04T23:05:22.921Z,97299.88
2023-12-04T23:07:49.764Z,97308.84
2023-12-04T23:10:16.171Z,97304.97
2023-12-04T23:12:42.712Z,97302.84
2023-12-04T23:15:10.052Z,97306.22
2023-12-04T23:17:36.513Z,97303.13
2023-12-04T23:20:03.729Z,97307.06
2023-12-04T23:22:30.087Z,97309.50
2023-12-04T23:24:56.487Z,97314.44
2023-12-04T23:27:32.137Z,97324.34
2023-12-04T23:30:07.202Z,97329.94
2023-12-04T23:32:34.338Z,97324.56
2023-12-04T23:35:00.767Z,97327.50
2023-12-04T23:37:27.194Z,97324.59
2023-12-04T23:39:53.609Z,97327.38
2023-12-04T23:42:20.028Z,97322.97
2023-12-04T23:44:46.476Z,97328.56
2023-12-04T23:47:12.948Z,97311.59
2023-12-04T23:49:39.454Z,97305.38
2023-12-04T23:52:06.182Z,97314.97
2023-12-04T23:54:32.690Z,97322.66
2023-12-04T23:56:59.153Z,97314.81
2023-12-04T23:59:25.951Z,97316.28
